Search for airport 
image banner adimage banner adimage banner ad
image banner ad

N57 - New Garden

Located in Toughkenamon, United States

ICAO - N57, IATA -

Data provided by Airmate  

General information

Coordinates: N39°49'50" W75°46'11"
Elevation is 436 feet MSL.
Magnetic variation is -09° East
View others Airports in Pennsylvania

Operational data

Special qualification required
Current time UTC:
Current local time:
Weather at : KMQS - Chester County G O Carlson ( 18 km )
METAR: KMQS 091255Z AUTO 28006KT 10SM FEW110 08/03 A3012 RMK AO2
View NOTAMs / SUP AIP / TFR affecting this airport [VIEW]
Communications frequencies: [VIEW]

Runways:

RWY identifierQFULength (ft)Width (ft)SurfaceLDA (ft)
0646°369360ASPH
24226°369360ASPH

Airport contact information

Address: Toughkenamon United States

Other aviation service providers

Flight schools

New Garden Flight Connection, Inc.

New Garden Flight Connection, Inc.
+1(610)268-2624

Satellite view of N57